Time;durP1;ratioP1;P1;durP2;ratioP2;P2;SDS_P1;SDS_P2;PMS_P1;PMS_P2;Temp;Humidity;BMP_temperature;BMP_pressure;BME280_temperature;BME280_humidity;BME280_pressure;Samples;Min_cycle;Max_cycle;Signal;HPM_P1;HPM_P2
2023/07/09 00:01:21;;;;;;;12.63;5.13;;;16.00;99.90;;;;;;5073503;28;20525;-68
2023/07/09 00:03:51;;;;;;;5.55;4.60;;;16.00;99.90;;;;;;5073774;28;20033;-68
2023/07/09 00:06:17;;;;;;;8.25;5.28;;;16.00;99.90;;;;;;5072203;28;20028;-68
2023/07/09 00:08:46;;;;;;;5.35;4.53;;;16.00;99.90;;;;;;5073168;28;20465;-68
2023/07/09 00:11:12;;;;;;;11.18;5.82;;;16.00;99.90;;;;;;5072104;28;20519;-68
2023/07/09 00:13:38;;;;;;;9.35;4.90;;;16.00;99.90;;;;;;5073352;28;20032;-68
2023/07/09 00:16:22;;;;;;;8.65;4.95;;;15.90;99.90;;;;;;5073118;28;20025;-68
2023/07/09 00:18:48;;;;;;;6.38;4.47;;;15.90;99.90;;;;;;5073419;28;20020;-68
2023/07/09 00:21:15;;;;;;;8.48;5.53;;;15.90;99.90;;;;;;5073340;28;20052;-68
2023/07/09 00:23:41;;;;;;;8.57;4.85;;;15.90;99.90;;;;;;5072999;28;20060;-68
2023/07/09 00:26:16;;;;;;;7.75;5.07;;;15.80;99.90;;;;;;5074811;28;20485;-68
2023/07/09 00:28:42;;;;;;;5.78;4.80;;;15.80;99.90;;;;;;5076818;28;20031;-68
2023/07/09 00:31:14;;;;;;;5.57;4.90;;;15.80;99.90;;;;;;5076865;28;20028;-68
2023/07/09 00:33:40;;;;;;;5.22;4.72;;;15.80;99.90;;;;;;5077190;28;20024;-68
2023/07/09 00:36:24;;;;;;;7.57;4.70;;;15.70;99.90;;;;;;5075584;28;20077;-68
2023/07/09 00:38:51;;;;;;;8.40;5.00;;;15.80;99.90;;;;;;5076755;28;20481;-68
2023/07/09 00:41:20;;;;;;;8.02;4.82;;;15.70;99.90;;;;;;5077228;28;20073;-68
2023/07/09 00:43:48;;;;;;;10.93;5.22;;;15.70;99.90;;;;;;5075514;28;20059;-68
2023/07/09 00:46:17;;;;;;;9.38;5.32;;;15.70;99.90;;;;;;5075504;28;20029;-70
2023/07/09 00:48:43;;;;;;;9.05;4.32;;;15.70;99.90;;;;;;5076715;28;20025;-68
2023/07/09 00:51:13;;;;;;;5.38;4.50;;;15.60;99.90;;;;;;5066260;28;20045;-68
2023/07/09 00:53:45;;;;;;;5.97;4.78;;;15.60;99.90;;;;;;5056616;28;20025;-68
2023/07/09 00:56:14;;;;;;;9.55;4.88;;;15.60;99.90;;;;;;5056731;28;20369;-68
2023/07/09 00:58:47;;;;;;;6.05;5.15;;;15.60;99.90;;;;;;5056654;28;20087;-68
2023/07/09 01:01:17;;;;;;;8.32;5.30;;;15.60;99.90;;;;;;5038602;28;20040;-68
2023/07/09 01:03:47;;;;;;;6.05;4.65;;;15.50;99.90;;;;;;5056478;28;20055;-68
2023/07/09 01:06:15;;;;;;;6.03;4.95;;;15.50;99.90;;;;;;5056692;28;20051;-68
2023/07/09 01:08:41;;;;;;;9.38;5.45;;;15.50;99.90;;;;;;5056345;28;20103;-70
2023/07/09 01:11:21;;;;;;;9.02;5.03;;;15.50;99.90;;;;;;5056177;28;20112;-68
2023/07/09 01:14:08;;;;;;;7.60;4.82;;;15.40;99.90;;;;;;5038098;28;20029;-68
2023/07/09 01:16:40;;;;;;;9.52;5.18;;;15.30;99.90;;;;;;5056646;28;20087;-68
2023/07/09 01:19:06;;;;;;;7.93;5.10;;;15.30;99.90;;;;;;5055871;28;20025;-69
2023/07/09 01:21:32;;;;;;;6.70;5.05;;;15.30;99.90;;;;;;5056057;28;20071;-70
2023/07/09 01:23:58;;;;;;;6.60;5.32;;;15.20;99.90;;;;;;5055698;28;20381;-70
2023/07/09 01:26:26;;;;;;;7.55;5.13;;;15.30;99.90;;;;;;5038063;28;20029;-70
2023/07/09 01:28:53;;;;;;;7.55;5.20;;;15.20;99.90;;;;;;5055589;28;20025;-70
2023/07/09 01:31:20;;;;;;;7.85;5.07;;;15.20;99.90;;;;;;5056130;28;20029;-70
2023/07/09 01:33:46;;;;;;;6.60;5.07;;;15.30;99.90;;;;;;5055860;28;20373;-70
2023/07/09 01:36:22;;;;;;;10.95;5.13;;;15.20;99.90;;;;;;5037549;28;20025;-70
2023/07/09 01:38:49;;;;;;;8.68;5.10;;;15.70;99.90;;;;;;5055883;28;20021;-69
2023/07/09 01:41:14;;;;;;;6.72;4.78;;;15.30;99.90;;;;;;5037969;28;20025;-70
2023/07/09 01:43:43;;;;;;;9.48;5.57;;;15.30;99.90;;;;;;5055927;28;20128;-70
2023/07/09 01:46:12;;;;;;;6.80;5.50;;;15.20;99.90;;;;;;5055361;28;20025;-70
2023/07/09 01:48:41;;;;;;;6.07;5.38;;;15.20;99.90;;;;;;5038060;28;20033;-69
2023/07/09 01:51:07;;;;;;;;;;;15.20;99.90;;;;;;5055979;28;20102;-68
2023/07/09 01:53:35;;;;;;;9.70;5.07;;;15.20;99.90;;;;;;5055482;28;20089;-69
2023/07/09 01:56:02;;;;;;;8.07;5.03;;;15.20;99.90;;;;;;5055415;28;20024;-69
2023/07/09 01:58:31;;;;;;;5.65;4.97;;;15.10;99.90;;;;;;5037727;28;20029;-70
2023/07/09 02:00:57;;;;;;;6.80;4.80;;;15.10;99.90;;;;;;5037738;28;20029;-70
2023/07/09 02:03:24;;;;;;;7.60;5.28;;;15.10;99.90;;;;;;5055562;28;20029;-70
2023/07/09 02:05:52;;;;;;;5.40;4.60;;;15.10;99.90;;;;;;5055584;28;20476;-70
2023/07/09 02:08:18;;;;;;;8.45;5.30;;;15.10;99.90;;;;;;5037291;28;20024;-71
2023/07/09 02:10:45;;;;;;;8.70;5.45;;;15.10;99.90;;;;;;5055100;28;20064;-69
2023/07/09 02:13:11;;;;;;;5.78;4.40;;;15.10;99.90;;;;;;5054770;28;20385;-70
2023/07/09 02:15:36;;;;;;;7.20;5.13;;;15.10;99.90;;;;;;5054849;28;20029;-70
2023/07/09 02:18:02;;;;;;;5.60;5.00;;;15.10;99.90;;;;;;5054931;28;20082;-70
2023/07/09 02:20:28;;;;;;;11.45;5.85;;;15.10;99.90;;;;;;5055201;28;20041;-70
2023/07/09 02:22:53;;;;;;;5.38;4.82;;;15.00;99.90;;;;;;5055526;28;20350;-70
2023/07/09 02:25:19;;;;;;;10.57;5.63;;;15.00;99.90;;;;;;5055352;28;20028;-70
2023/07/09 02:27:45;;;;;;;6.78;4.85;;;15.00;99.90;;;;;;5036958;28;20032;-70
2023/07/09 02:30:11;;;;;;;8.95;5.55;;;15.00;99.90;;;;;;5054701;28;20029;-70
2023/07/09 02:32:37;;;;;;;8.77;5.38;;;15.00;99.90;;;;;;5036790;28;20032;-70
2023/07/09 02:35:04;;;;;;;7.35;5.05;;;14.90;99.90;;;;;;5036815;28;20024;-69
2023/07/09 02:37:30;;;;;;;9.27;5.25;;;14.90;99.90;;;;;;5054644;28;20021;-70
2023/07/09 02:39:55;;;;;;;6.70;5.25;;;14.90;99.90;;;;;;5036942;28;20591;-70
2023/07/09 02:42:22;;;;;;;7.32;4.97;;;14.90;99.90;;;;;;5054574;28;20067;-70
2023/07/09 02:44:48;;;;;;;6.15;5.55;;;14.90;99.90;;;;;;5036637;28;20021;-70
2023/07/09 02:47:14;;;;;;;9.05;5.35;;;14.90;99.90;;;;;;5054267;28;20032;-70
2023/07/09 02:49:40;;;;;;;5.75;5.18;;;14.90;99.90;;;;;;5054028;28;20043;-70
2023/07/09 02:52:06;;;;;;;6.18;5.00;;;14.80;99.90;;;;;;5054912;28;20401;-70
2023/07/09 02:54:32;;;;;;;8.05;5.20;;;14.80;99.90;;;;;;5054339;28;20025;-70
2023/07/09 02:56:58;;;;;;;6.13;5.40;;;14.80;99.90;;;;;;5054008;28;20355;-70
2023/07/09 02:59:26;;;;;;;5.88;5.28;;;14.70;99.90;;;;;;5054231;28;20040;-70
2023/07/09 03:01:52;;;;;;;5.78;5.10;;;14.80;99.90;;;;;;5054083;28;20027;-70
2023/07/09 03:04:20;;;;;;;8.13;5.65;;;14.80;99.90;;;;;;5054178;28;20108;-70
2023/07/09 03:06:45;;;;;;;8.70;5.40;;;14.70;99.90;;;;;;5054165;28;20029;-70
2023/07/09 03:09:11;;;;;;;10.48;4.85;;;14.80;99.90;;;;;;5054248;28;20025;-70
2023/07/09 03:11:37;;;;;;;9.18;5.05;;;14.70;99.90;;;;;;5053806;28;20033;-70
2023/07/09 03:14:03;;;;;;;7.05;4.88;;;14.70;99.90;;;;;;5054099;28;20145;-70
2023/07/09 03:16:31;;;;;;;6.15;4.93;;;14.70;99.90;;;;;;5054054;28;20484;-70
2023/07/09 03:18:57;;;;;;;8.90;5.05;;;14.70;99.90;;;;;;5036096;28;20367;-69
2023/07/09 03:21:25;;;;;;;14.43;6.97;;;14.70;99.90;;;;;;5036046;28;20142;-69
2023/07/09 03:23:51;;;;;;;9.75;5.35;;;14.70;99.90;;;;;;5053836;28;20040;-70
2023/07/09 03:26:17;;;;;;;8.57;6.35;;;14.70;99.90;;;;;;5053848;28;20029;-70
2023/07/09 03:28:43;;;;;;;6.53;5.28;;;14.70;99.90;;;;;;5054046;28;20053;-70
2023/07/09 03:31:08;;;;;;;9.32;5.18;;;14.70;99.90;;;;;;5053730;28;20064;-70
2023/07/09 03:33:34;;;;;;;6.80;4.95;;;14.70;99.90;;;;;;5053749;28;20122;-70
2023/07/09 03:36:00;;;;;;;7.75;4.90;;;14.70;99.90;;;;;;5053995;28;20044;-69
2023/07/09 03:38:25;;;;;;;6.72;5.15;;;14.70;99.90;;;;;;5054123;28;20431;-69
2023/07/09 03:40:52;;;;;;;10.57;5.68;;;14.70;99.90;;;;;;5053667;28;20041;-69
2023/07/09 03:43:18;;;;;;;10.55;4.93;;;14.70;99.90;;;;;;5053682;28;20033;-69
2023/07/09 03:45:46;;;;;;;6.65;5.22;;;14.70;99.90;;;;;;5053751;28;20104;-69
2023/07/09 03:48:11;;;;;;;6.90;4.93;;;14.70;99.90;;;;;;5053637;28;20025;-69
2023/07/09 03:50:37;;;;;;;7.78;5.00;;;14.80;99.90;;;;;;5044430;28;20056;-69
2023/07/09 03:53:03;;;;;;;7.50;5.22;;;14.80;99.90;;;;;;5073561;28;20032;-69
2023/07/09 03:55:29;;;;;;;6.53;5.28;;;14.80;99.90;;;;;;5072476;28;20025;-69
2023/07/09 03:57:55;;;;;;;6.78;4.88;;;14.80;99.90;;;;;;5072257;28;20480;-69
2023/07/09 04:00:21;;;;;;;9.30;5.30;;;14.90;99.90;;;;;;5074887;28;20043;-69
2023/07/09 04:02:47;;;;;;;7.32;5.03;;;14.90;99.90;;;;;;5076647;28;20024;-69
2023/07/09 04:05:13;;;;;;;6.88;5.10;;;14.90;99.90;;;;;;5077491;28;20029;-69
2023/07/09 04:07:38;;;;;;;5.82;4.75;;;15.00;99.90;;;;;;5076690;28;20354;-69
2023/07/09 04:10:05;;;;;;;7.35;5.18;;;15.00;99.90;;;;;;5077137;28;20032;-69
2023/07/09 04:12:31;;;;;;;5.43;4.80;;;15.10;99.90;;;;;;5077434;28;20037;-69
2023/07/09 04:14:56;;;;;;;6.32;4.93;;;15.10;99.90;;;;;;5077352;28;20023;-69
2023/07/09 04:17:23;;;;;;;5.80;4.95;;;15.20;99.90;;;;;;5077304;28;20021;-69
2023/07/09 04:19:50;;;;;;;6.60;4.93;;;15.20;99.90;;;;;;5076479;28;20380;-69
2023/07/09 04:22:15;;;;;;;7.00;5.28;;;15.30;99.90;;;;;;5075940;28;20526;-67
2023/07/09 04:24:41;;;;;;;7.60;5.38;;;15.30;99.90;;;;;;5075855;28;20032;-65
2023/07/09 04:27:07;;;;;;;6.93;4.65;;;15.40;99.90;;;;;;5077332;28;20032;-65
2023/07/09 04:29:35;;;;;;;8.90;4.90;;;15.50;99.90;;;;;;5075684;28;20028;-65
2023/07/09 04:32:01;;;;;;;7.00;4.70;;;15.60;99.90;;;;;;5077034;28;20029;-65
2023/07/09 04:34:27;;;;;;;8.23;4.30;;;15.60;99.90;;;;;;5076990;28;20025;-65
2023/07/09 04:36:53;;;;;;;6.30;5.00;;;15.80;99.90;;;;;;5076954;28;20090;-65
2023/07/09 04:39:18;;;;;;;7.18;5.35;;;15.80;99.90;;;;;;5076912;28;20060;-65
2023/07/09 04:41:44;;;;;;;7.70;4.15;;;15.90;99.90;;;;;;5076834;28;20107;-65
2023/07/09 04:44:09;;;;;;;5.55;4.35;;;16.00;99.90;;;;;;5076602;28;20121;-65
2023/07/09 04:46:35;;;;;;;8.02;4.68;;;16.10;99.90;;;;;;5076611;28;20028;-66
2023/07/09 04:49:01;;;;;;;6.20;4.30;;;16.10;99.90;;;;;;5076658;28;20025;-65
2023/07/09 04:51:26;;;;;;;6.55;4.95;;;16.20;99.90;;;;;;5063143;28;20128;-64
2023/07/09 04:53:52;;;;;;;7.30;4.80;;;16.30;99.90;;;;;;5056718;28;20068;-65
2023/07/09 04:56:18;;;;;;;6.97;5.45;;;16.40;99.90;;;;;;5056580;28;20058;-64
2023/07/09 04:58:44;;;;;;;7.07;4.95;;;16.50;99.90;;;;;;5038591;28;20049;-65
2023/07/09 05:01:10;;;;;;;7.07;4.45;;;16.60;99.90;;;;;;5056253;28;20429;-65
2023/07/09 05:03:36;;;;;;;7.90;4.85;;;16.60;99.90;;;;;;5056459;28;20111;-64
2023/07/09 05:06:03;;;;;;;6.03;4.40;;;16.70;99.90;;;;;;5056412;28;20067;-65
2023/07/09 05:08:28;;;;;;;7.97;4.20;;;16.80;99.90;;;;;;5056065;28;20032;-65
2023/07/09 05:10:56;;;;;;;4.82;4.25;;;16.90;99.90;;;;;;5055965;28;20041;-64
2023/07/09 05:13:21;;;;;;;5.88;4.43;;;17.00;99.90;;;;;;5056455;28;20021;-65
2023/07/09 05:15:48;;;;;;;4.95;4.43;;;17.10;99.90;;;;;;5056222;28;20520;-65
2023/07/09 05:18:15;;;;;;;6.38;4.32;;;17.10;99.90;;;;;;5056419;28;20017;-65
2023/07/09 05:20:41;;;;;;;5.32;4.53;;;17.30;99.90;;;;;;5056155;28;20060;-64
2023/07/09 05:23:08;;;;;;;6.03;4.05;;;17.30;99.90;;;;;;5056502;28;20461;-64
2023/07/09 05:25:34;;;;;;;6.82;4.35;;;17.40;99.90;;;;;;5038255;28;20056;-64
2023/07/09 05:28:00;;;;;;;7.50;4.70;;;17.50;99.90;;;;;;5055636;28;20064;-64
2023/07/09 05:30:26;;;;;;;8.23;4.32;;;17.70;99.90;;;;;;5055982;28;20029;-65
2023/07/09 05:32:53;;;;;;;5.82;4.30;;;17.80;99.90;;;;;;5056134;28;20025;-64
2023/07/09 05:35:19;;;;;;;7.22;4.45;;;18.00;99.90;;;;;;5037855;28;20082;-64
2023/07/09 05:37:44;;;;;;;6.00;4.72;;;18.10;99.90;;;;;;5055782;28;20036;-65
2023/07/09 05:40:10;;;;;;;10.32;4.50;;;18.20;99.90;;;;;;5055732;28;20107;-64
2023/07/09 05:42:36;;;;;;;8.73;4.40;;;18.30;99.90;;;;;;5037763;28;20428;-64
2023/07/09 05:45:02;;;;;;;11.23;4.40;;;18.50;99.90;;;;;;5037988;28;20040;-64
2023/07/09 05:47:27;;;;;;;7.72;3.97;;;18.60;99.90;;;;;;5055573;28;20081;-70
2023/07/09 05:49:53;;;;;;;5.38;3.95;;;18.70;99.90;;;;;;5055520;28;20120;-69
2023/07/09 05:52:20;;;;;;;4.82;4.32;;;19.20;99.90;;;;;;5055520;28;20021;-69
2023/07/09 05:54:48;;;;;;;8.20;4.00;;;19.00;99.90;;;;;;5055186;28;20025;-69
2023/07/09 05:57:14;;;;;;;5.60;3.75;;;19.10;99.90;;;;;;5055070;28;20044;-69
2023/07/09 05:59:39;;;;;;;6.20;3.85;;;19.30;99.90;;;;;;5037159;28;20478;-68
2023/07/09 06:02:11;;;;;;;4.03;3.65;;;19.40;99.90;;;;;;5055359;28;20033;-64
2023/07/09 06:04:37;;;;;;;4.75;4.00;;;19.50;99.90;;;;;;5037630;28;20033;-58
2023/07/09 06:07:03;;;;;;;5.10;3.50;;;19.70;99.90;;;;;;5037324;28;20171;-61
2023/07/09 06:09:29;;;;;;;4.63;3.58;;;19.90;99.90;;;;;;5037461;28;20428;-61
2023/07/09 06:11:55;;;;;;;4.15;3.80;;;20.10;99.90;;;;;;5055374;28;20036;-61
2023/07/09 06:14:21;;;;;;;10.35;5.55;;;20.30;99.90;;;;;;5055106;28;20377;-60
2023/07/09 06:16:46;;;;;;;5.05;3.50;;;20.50;99.90;;;;;;5055587;28;20444;-61
2023/07/09 06:19:12;;;;;;;5.85;4.15;;;20.80;99.90;;;;;;5055073;28;20051;-64
2023/07/09 06:21:39;;;;;;;6.03;3.78;;;21.20;99.90;;;;;;5055258;28;20104;-63
2023/07/09 06:24:06;;;;;;;4.80;4.32;;;21.60;99.90;;;;;;5053829;28;20036;-62
2023/07/09 06:26:31;;;;;;;4.10;3.70;;;22.10;99.90;;;;;;5054841;28;20104;-63
2023/07/09 06:28:57;;;;;;;7.72;4.32;;;22.50;99.90;;;;;;5055038;28;20052;-62
2023/07/09 06:31:24;;;;;;;16.42;6.07;;;23.00;99.90;;;;;;5054694;28;20439;-61
2023/07/09 06:33:50;;;;;;;5.35;3.63;;;23.50;99.90;;;;;;5036854;28;20025;-61
2023/07/09 06:36:17;;;;;;;6.25;3.85;;;24.00;99.90;;;;;;5054652;28;20043;-60
2023/07/09 06:38:44;;;;;;;5.30;3.92;;;24.40;99.90;;;;;;5054683;28;20430;-61
2023/07/09 06:41:10;;;;;;;5.93;4.18;;;24.80;99.90;;;;;;5054497;28;20500;-62
2023/07/09 06:43:38;;;;;;;5.80;3.75;;;25.20;99.90;;;;;;5054520;28;20024;-62
2023/07/09 06:46:05;;;;;;;5.20;3.72;;;25.50;97.50;;;;;;5054434;28;20033;-62
2023/07/09 06:48:31;;;;;;;5.72;3.67;;;25.70;96.30;;;;;;5054427;28;20068;-63
2023/07/09 06:50:58;;;;;;;5.53;3.63;;;26.00;96.30;;;;;;5050408;28;20569;-62
2023/07/09 06:53:24;;;;;;;4.43;3.83;;;26.30;95.30;;;;;;5074108;28;20020;-62
2023/07/09 06:55:50;;;;;;;8.48;4.10;;;26.70;94.40;;;;;;5074351;28;20035;-62
2023/07/09 06:58:17;;;;;;;6.95;3.97;;;26.80;92.60;;;;;;5074234;28;20107;-63
2023/07/09 07:00:42;;;;;;;4.22;3.83;;;26.90;92.20;;;;;;5074223;28;20094;-62
2023/07/09 07:03:09;;;;;;;7.38;3.72;;;27.00;91.60;;;;;;5074136;28;20056;-63
2023/07/09 07:05:35;;;;;;;6.15;3.47;;;27.20;91.10;;;;;;5074106;28;20024;-63
2023/07/09 07:08:02;;;;;;;4.57;3.97;;;27.40;90.20;;;;;;5072853;28;20036;-63
2023/07/09 07:10:28;;;;;;;6.97;3.95;;;27.60;89.80;;;;;;5074041;28;20056;-63
2023/07/09 07:12:54;;;;;;;5.97;3.60;;;27.80;89.90;;;;;;5074095;28;20491;-63
2023/07/09 07:15:20;;;;;;;4.07;3.65;;;28.00;88.20;;;;;;5074001;28;20021;-62
2023/07/09 07:17:45;;;;;;;4.93;3.45;;;28.30;87.50;;;;;;5073015;28;20056;-66
2023/07/09 07:20:13;;;;;;;4.68;4.05;;;28.60;87.70;;;;;;5073967;28;20111;-63
2023/07/09 07:22:39;;;;;;;7.95;3.97;;;28.70;84.90;;;;;;5074047;28;20101;-62
2023/07/09 07:25:06;;;;;;;3.85;3.50;;;28.80;83.30;;;;;;5074169;28;20029;-65
2023/07/09 07:27:32;;;;;;;5.22;3.80;;;29.00;83.50;;;;;;5072604;28;20029;-68
2023/07/09 07:29:58;;;;;;;3.92;3.50;;;29.50;81.40;;;;;;5073944;28;20025;-68
2023/07/09 07:32:24;;;;;;;5.28;3.80;;;29.40;80.10;;;;;;5074009;28;20040;-69
2023/07/09 07:34:49;;;;;;;9.07;3.47;;;29.40;78.40;;;;;;5073928;28;20513;-63
2023/07/09 07:37:19;;;;;;;4.55;3.67;;;29.40;77.90;;;;;;5073708;28;20024;-63
2023/07/09 07:39:44;;;;;;;4.78;3.75;;;29.40;76.20;;;;;;5072096;28;20029;-63
2023/07/09 07:42:10;;;;;;;6.25;3.60;;;29.40;77.00;;;;;;5073785;28;20029;-63
2023/07/09 07:44:36;;;;;;;5.03;3.72;;;29.70;74.90;;;;;;5073704;28;20036;-63
2023/07/09 07:47:01;;;;;;;6.95;3.85;;;30.20;74.10;;;;;;5073716;28;20028;-63
2023/07/09 07:49:27;;;;;;;4.45;3.40;;;30.50;72.40;;;;;;5073682;28;20035;-63
2023/07/09 07:51:53;;;;;;;4.78;3.28;;;30.50;74.80;;;;;;5072126;28;20483;-63
2023/07/09 07:54:18;;;;;;;5.38;3.90;;;30.70;71.70;;;;;;5073458;28;20021;-65
2023/07/09 07:56:44;;;;;;;7.25;3.55;;;31.00;68.20;;;;;;5073791;28;20517;-63
2023/07/09 07:59:10;;;;;;;8.02;3.70;;;31.00;69.50;;;;;;5073648;28;20421;-62
2023/07/09 08:01:35;;;;;;;4.28;3.30;;;31.10;67.50;;;;;;5072237;28;20025;-62
2023/07/09 08:04:04;;;;;;;4.35;3.28;;;31.40;67.60;;;;;;5073067;28;20491;-69
2023/07/09 08:06:31;;;;;;;3.83;3.53;;;31.60;64.80;;;;;;5073594;28;20040;-69
2023/07/09 08:08:57;;;;;;;9.43;3.60;;;31.80;63.60;;;;;;5072134;28;20035;-68
2023/07/09 08:11:24;;;;;;;5.03;3.35;;;32.30;62.60;;;;;;5073387;28;20033;-69
2023/07/09 08:13:50;;;;;;;8.70;4.03;;;32.60;62.30;;;;;;5072195;28;20375;-69
2023/07/09 08:16:15;;;;;;;3.70;3.40;;;32.50;62.80;;;;;;5073269;28;20024;-69
2023/07/09 08:18:41;;;;;;;5.95;3.63;;;32.90;61.20;;;;;;5073644;28;20039;-68
2023/07/09 08:21:06;;;;;;;6.13;3.47;;;33.00;60.20;;;;;;5073205;28;20094;-69
2023/07/09 08:23:32;;;;;;;4.35;3.25;;;32.90;58.00;;;;;;5071723;28;20117;-69
2023/07/09 08:26:00;;;;;;;3.53;3.22;;;32.60;58.40;;;;;;5073353;28;20025;-69
2023/07/09 08:28:26;;;;;;;3.27;2.97;;;32.80;58.50;;;;;;5072219;28;20037;-69
2023/07/09 08:30:53;;;;;;;5.32;3.65;;;33.40;57.60;;;;;;5073197;28;20123;-68
2023/07/09 08:33:18;;;;;;;5.20;3.20;;;33.50;56.10;;;;;;5073213;28;20060;-68
2023/07/09 08:35:44;;;;;;;3.53;3.22;;;33.60;55.40;;;;;;5072877;28;20056;-70
2023/07/09 08:38:10;;;;;;;8.48;3.50;;;33.90;55.40;;;;;;5073127;28;20493;-70
2023/07/09 08:40:41;;;;;;;3.78;3.30;;;34.30;54.10;;;;;;5073295;28;20033;-72
2023/07/09 08:43:26;;;;;;;3.67;3.38;;;34.60;53.70;;;;;;5073097;28;20024;-70
2023/07/09 08:46:03;;;;;;;5.88;3.25;;;34.90;52.90;;;;;;5073253;28;20028;-72
2023/07/09 08:48:38;;;;;;;3.97;3.58;;;35.10;51.50;;;;;;5075453;28;20031;-72
2023/07/09 08:51:21;;;;;;;7.70;3.40;;;35.20;51.50;;;;;;5066941;28;20049;-71
2023/07/09 08:53:50;;;;;;;9.45;3.95;;;35.20;51.80;;;;;;5056581;28;20100;-71
2023/07/09 08:56:17;;;;;;;3.80;3.50;;;34.80;50.60;;;;;;5056496;28;20416;-70
2023/07/09 08:58:44;;;;;;;8.43;3.58;;;34.80;51.00;;;;;;5056468;28;20029;-73
2023/07/09 09:01:29;;;;;;;7.10;3.53;;;35.30;50.40;;;;;;5056712;28;20033;-73
2023/07/09 09:04:00;;;;;;;3.67;3.38;;;35.70;49.80;;;;;;5056476;28;20079;-72
2023/07/09 09:06:28;;;;;;;5.10;2.92;;;36.00;49.30;;;;;;5056337;28;20405;-70
2023/07/09 09:09:03;;;;;;;4.72;3.33;;;36.50;47.30;;;;;;5056637;28;20033;-69
2023/07/09 09:11:46;;;;;;;4.90;3.17;;;36.80;45.90;;;;;;5038341;28;20068;-70
2023/07/09 09:14:18;;;;;;;4.15;3.05;;;36.90;45.70;;;;;;5056087;28;20029;-70
2023/07/09 09:16:45;;;;;;;4.18;3.78;;;37.10;45.50;;;;;;5056374;28;20055;-69
2023/07/09 09:19:38;;;;;;;4.10;3.10;;;36.80;43.30;;;;;;5056056;28;20025;-69
2023/07/09 09:22:13;;;;;;;3.55;3.25;;;36.70;42.30;;;;;;5045482;28;20047;-70
2023/07/09 09:25:03;;;;;;;3.47;3.17;;;36.90;41.90;;;;;;5056068;28;20355;-71
2023/07/09 09:27:29;;;;;;;2.78;2.58;;;37.10;41.00;;;;;;5038188;28;20029;-72
2023/07/09 09:29:54;;;;;;;3.95;2.58;;;37.10;41.80;;;;;;5055580;28;20036;-71
2023/07/09 09:32:27;;;;;;;3.42;2.65;;;36.60;41.30;;;;;;5055834;28;20397;-70
2023/07/09 09:34:53;;;;;;;5.85;2.78;;;36.40;41.10;;;;;;5055830;28;20032;-72
2023/07/09 09:37:32;;;;;;;4.65;2.97;;;36.40;41.60;;;;;;5038357;28;20033;-72
2023/07/09 09:40:02;;;;;;;3.00;2.80;;;36.00;42.20;;;;;;5055958;28;20124;-71
2023/07/09 09:42:28;;;;;;;3.15;2.85;;;35.80;42.30;;;;;;5038057;28;20060;-72
2023/07/09 09:44:55;;;;;;;3.00;2.67;;;35.90;41.50;;;;;;5055604;28;20033;-69
2023/07/09 09:47:21;;;;;;;3.08;2.88;;;35.80;41.90;;;;;;5037812;28;20376;-70
2023/07/09 09:49:47;;;;;;;2.63;2.42;;;36.30;41.90;;;;;;5055341;28;20481;-75
2023/07/09 09:52:18;;;;;;;5.30;3.08;;;35.90;45.80;;;;;;5071967;28;20044;-74
2023/07/09 09:54:56;;;;;;;3.25;2.95;;;36.70;43.10;;;;;;5075084;28;20468;-75
2023/07/09 09:57:24;;;;;;;4.80;2.63;;;38.20;41.10;;;;;;5073118;28;20028;-76
2023/07/09 09:59:50;;;;;;;4.63;2.60;;;39.70;39.80;;;;;;5075206;28;20029;-76
2023/07/09 10:02:24;;;;;;;2.70;2.50;;;41.20;38.50;;;;;;5075633;28;20081;-76
2023/07/09 10:04:51;;;;;;;2.63;2.42;;;41.90;37.20;;;;;;5073986;28;20127;-76
2023/07/09 10:07:39;;;;;;;3.38;2.50;;;41.50;35.00;;;;;;5075226;28;20078;-75
2023/07/09 10:10:13;;;;;;;2.65;2.38;;;41.50;33.60;;;;;;5074188;28;20036;-73
2023/07/09 10:12:49;;;;;;;3.70;2.50;;;40.90;34.40;;;;;;5074324;28;20491;-74
2023/07/09 10:15:24;;;;;;;2.42;2.22;;;41.00;33.80;;;;;;5075143;28;20460;-74
2023/07/09 10:18:03;;;;;;;2.90;2.55;;;40.90;34.40;;;;;;5074774;28;20032;-74
2023/07/09 10:20:35;;;;;;;4.20;2.50;;;41.10;32.00;;;;;;5075051;28;20465;-74
2023/07/09 10:23:35;;;;;;;3.17;2.88;;;40.60;34.80;;;;;;5073339;28;20044;-75
2023/07/09 10:26:23;;;;;;;3.08;2.72;;;40.70;35.00;;;;;;5069987;28;20033;-75
2023/07/09 10:29:14;;;;;;;2.70;2.50;;;40.70;35.20;;;;;;5073308;28;20024;-75
2023/07/09 10:31:58;;;;;;;3.50;2.70;;;41.00;35.00;;;;;;5094810;28;20028;-74
2023/07/09 10:34:42;;;;;;;3.17;2.47;;;41.00;33.00;;;;;;5093326;28;20024;-74
2023/07/09 10:37:13;;;;;;;2.90;2.70;;;40.70;34.30;;;;;;5093736;28;20070;-75
2023/07/09 10:39:46;;;;;;;4.70;2.67;;;40.70;34.50;;;;;;5093724;28;20039;-74
2023/07/09 10:42:29;;;;;;;3.10;2.80;;;40.40;34.90;;;;;;5093682;28;20067;-73
2023/07/09 10:45:03;;;;;;;3.42;2.03;;;41.00;34.50;;;;;;5093560;28;20036;-75
2023/07/09 10:47:34;;;;;;;4.07;2.72;;;41.50;34.90;;;;;;5095048;28;20035;-75
2023/07/09 10:50:02;;;;;;;2.75;2.55;;;41.50;34.30;;;;;;5093462;28;20479;-74
2023/07/09 10:52:36;;;;;;;3.13;2.83;;;41.30;34.10;;;;;;5073938;28;20507;-71
2023/07/09 10:55:16;;;;;;;2.67;2.47;;;40.70;34.50;;;;;;5074448;28;20029;-79
2023/07/09 10:57:42;;;;;;;2.33;2.22;;;40.40;32.80;;;;;;5073895;28;20036;-64
2023/07/09 11:00:17;;;;;;;2.90;2.70;;;40.00;34.30;;;;;;5074486;28;20509;-65
2023/07/09 11:02:44;;;;;;;3.10;2.55;;;39.90;34.40;;;;;;5074336;28;20020;-65
2023/07/09 11:05:10;;;;;;;3.15;2.58;;;39.80;34.10;;;;;;5074117;28;20024;-65
2023/07/09 11:08:02;;;;;;;2.83;2.33;;;39.80;34.90;;;;;;5074371;28;20025;-65
2023/07/09 11:10:36;;;;;;;2.67;2.28;;;39.50;35.30;;;;;;5035300;28;20044;-64
2023/07/09 11:13:24;;;;;;;3.45;2.35;;;40.40;34.00;;;;;;5073894;28;20085;-65
2023/07/09 11:15:54;;;;;;;2.40;2.20;;;40.70;31.50;;;;;;5074030;28;20032;-64
2023/07/09 11:18:31;;;;;;;2.47;2.28;;;40.90;32.90;;;;;;5071866;28;20046;-74
2023/07/09 11:21:01;;;;;;;2.55;2.40;;;41.30;32.20;;;;;;5073958;28;20035;-70
2023/07/09 11:23:38;;;;;;;2.33;2.13;;;41.50;31.20;;;;;;5056270;28;20597;-70
2023/07/09 11:26:26;;;;;;;4.55;2.03;;;41.60;31.20;;;;;;5073995;28;20027;-71
2023/07/09 11:29:13;;;;;;;2.25;2.08;;;41.70;30.70;;;;;;5056028;28;20073;-71
2023/07/09 11:31:44;;;;;;;2.28;2.17;;;41.50;30.10;;;;;;5072626;28;20182;-72
2023/07/09 11:34:12;;;;;;;2.67;2.22;;;41.50;30.60;;;;;;5073777;28;20057;-72
2023/07/09 11:37:01;;;;;;;3.13;2.65;;;41.40;30.50;;;;;;5052054;28;20113;-75
2023/07/09 11:39:49;;;;;;;2.33;2.20;;;41.60;31.10;;;;;;5036012;28;20036;-74
2023/07/09 11:42:24;;;;;;;2.17;2.08;;;41.90;29.80;;;;;;5035495;28;20040;-74
2023/07/09 11:44:56;;;;;;;2.20;2.00;;;41.90;29.70;;;;;;5053275;28;20134;-73
2023/07/09 11:47:24;;;;;;;2.35;2.10;;;42.10;29.60;;;;;;5059071;28;20376;-73
2023/07/09 11:50:02;;;;;;;3.00;2.20;;;41.90;29.30;;;;;;5054987;28;20090;-73
2023/07/09 11:52:31;;;;;;;3.20;2.13;;;41.80;29.50;;;;;;5072578;28;20522;-72
2023/07/09 11:55:03;;;;;;;3.38;2.28;;;41.50;27.70;;;;;;5073580;28;20104;-74
2023/07/09 11:57:29;;;;;;;2.17;2.00;;;41.50;29.90;;;;;;5053139;28;20067;-74
2023/07/09 12:00:00;;;;;;;3.28;2.17;;;41.50;29.60;;;;;;5053491;28;20060;-74
2023/07/09 12:02:32;;;;;;;2.70;2.50;;;41.50;29.50;;;;;;5071151;28;20020;-73
2023/07/09 12:05:20;;;;;;;2.47;2.22;;;41.60;29.20;;;;;;5073492;28;20060;-72
2023/07/09 12:07:46;;;;;;;2.22;2.10;;;41.90;28.60;;;;;;5073329;28;20059;-73
2023/07/09 12:10:20;;;;;;;3.22;2.78;;;41.60;29.10;;;;;;5073158;28;20464;-72
2023/07/09 12:12:46;;;;;;;2.60;2.33;;;41.70;28.90;;;;;;5073330;28;20028;-73
2023/07/09 12:15:18;;;;;;;2.42;2.22;;;41.80;29.90;;;;;;5072750;28;20438;-73
2023/07/09 12:17:53;;;;;;;2.33;2.20;;;41.90;29.30;;;;;;5070955;28;20021;-72
2023/07/09 12:20:19;;;;;;;4.13;2.10;;;41.70;29.40;;;;;;5053333;28;20033;-73
2023/07/09 12:22:44;;;;;;;2.30;2.20;;;41.60;30.00;;;;;;5056971;28;20028;-73
2023/07/09 12:25:29;;;;;;;2.80;2.60;;;41.30;29.20;;;;;;5057396;28;20033;-73
2023/07/09 12:27:54;;;;;;;2.30;2.20;;;40.90;29.50;;;;;;5057363;28;20127;-73
2023/07/09 12:30:20;;;;;;;2.33;2.22;;;41.30;29.70;;;;;;5056945;28;20095;-73
2023/07/09 12:32:54;;;;;;;2.70;2.50;;;41.60;29.90;;;;;;5055650;28;20532;-73
2023/07/09 12:35:21;;;;;;;2.35;2.15;;;41.80;29.70;;;;;;5057140;28;20025;-72
2023/07/09 12:37:50;;;;;;;2.58;2.38;;;42.20;29.80;;;;;;5068437;28;20071;-73
2023/07/09 12:40:20;;;;;;;3.33;2.33;;;41.90;28.80;;;;;;5076525;28;20029;-73
2023/07/09 12:42:46;;;;;;;2.28;2.03;;;41.90;29.20;;;;;;5076904;28;20029;-73
2023/07/09 12:45:20;;;;;;;2.92;2.08;;;41.70;29.20;;;;;;5076826;28;20025;-72
2023/07/09 12:47:47;;;;;;;2.15;2.05;;;41.90;29.60;;;;;;5076730;28;20042;-72
2023/07/09 12:50:22;;;;;;;2.53;2.13;;;42.20;29.40;;;;;;5075214;28;22310;-72
2023/07/09 12:52:49;;;;;;;2.13;1.85;;;42.00;29.20;;;;;;5058740;28;20392;-72
2023/07/09 12:55:25;;;;;;;3.08;2.20;;;42.00;29.40;;;;;;5059533;28;20053;-72